La rose des vents
Donnes mto: Semaine 07/08/23 - 13/08/23 (S 32)
Date Horaire Temp. E. Hum. E. P.atmo. Pluie Vent 1mn Direction Ensoleilleme Ev.Tr. Solaire P. de rose Temp au vent Rafales
07/08/2023 00:00 19,8 C 74 % 1008,5 hPa 0,0 mm 0,0 km/h (0 Bft) N 0,00 h 0,025 mm 0 W/m 15,2 C 19,8 C 0,0 km/h (0 Bft)
07/08/2023 01:00 19,6 C 70 % 1008,9 hPa 0,0 mm 0,0 km/h (0 Bft) N 0,00 h 0,025 mm 0 W/m 13,9 C 19,6 C 0,0 km/h (0 Bft)
07/08/2023 02:00 19,3 C 70 % 1009,1 hPa 0,0 mm 0,0 km/h (0 Bft) N 0,00 h 0,025 mm 0 W/m 13,7 C 19,3 C 0,0 km/h (0 Bft)
07/08/2023 03:00 18,2 C 58 % 1009,1 hPa 0,0 mm 0,4 km/h (0 Bft) NO 0,00 h 0,025 mm 0 W/m 9,6 C 18,2 C 1,2 km/h (1 Bft)
07/08/2023 04:00 18,3 C 52 % 1009,3 hPa 0,0 mm 0,2 km/h (0 Bft) NO 0,00 h 0,051 mm 0 W/m 8,2 C 18,3 C 1,3 km/h (1 Bft)
07/08/2023 05:00 17,8 C 52 % 1009,7 hPa 0,0 mm 0,0 km/h (0 Bft) O-NO 0,00 h 0,051 mm 0 W/m 7,9 C 17,8 C 0,3 km/h (0 Bft)
07/08/2023 06:00 17,1 C 52 % 1010,1 hPa 0,0 mm 0,9 km/h (0 Bft) NO 0,02 h 0,051 mm 11 W/m 7,2 C 17,1 C 2,8 km/h (1 Bft)
07/08/2023 07:00 17,8 C 49 % 1010,4 hPa 0,0 mm 0,1 km/h (0 Bft) O-NO 0,00 h 0,025 mm 26 W/m 6,9 C 17,8 C 0,6 km/h (0 Bft)
07/08/2023 08:00 19,1 C 47 % 1011,1 hPa 0,0 mm 0,0 km/h (0 Bft) N 0,00 h 0,025 mm 45 W/m 7,5 C 19,1 C 0,0 km/h (0 Bft)
07/08/2023 09:00 23,3 C 40 % 1011,6 hPa 0,0 mm 1,8 km/h (1 Bft) E 0,92 h 0,025 mm 471 W/m 8,7 C 23,3 C 4,5 km/h (1 Bft)
07/08/2023 10:00 26,1 C 33 % 1012,1 hPa 0,0 mm 5,5 km/h (1 Bft) S-SO 1,00 h 0,305 mm 660 W/m 8,3 C 26,1 C 11,3 km/h (2 Bft)
07/08/2023 11:00 26,9 C 33 % 1012,6 hPa 0,0 mm 7,6 km/h (2 Bft) S-SO 1,00 h 0,483 mm 794 W/m 9,4 C 26,9 C 14,5 km/h (3 Bft)
07/08/2023 12:00 27,8 C 28 % 1012,9 hPa 0,0 mm 9,4 km/h (2 Bft) S 1,00 h 0,610 mm 884 W/m 7,6 C 27,8 C 16,4 km/h (3 Bft)
07/08/2023 13:00 27,7 C 26 % 1012,9 hPa 0,0 mm 12,8 km/h (3 Bft) S-SE 1,00 h 0,686 mm 913 W/m 6,5 C 27,7 C 21,2 km/h (4 Bft)
07/08/2023 14:00 27,9 C 26 % 1012,9 hPa 0,0 mm 10,1 km/h (2 Bft) S-SE 1,00 h 0,737 mm 885 W/m 6,8 C 27,9 C 18,6 km/h (3 Bft)
07/08/2023 15:00 28,0 C 27 % 1012,8 hPa 0,0 mm 8,2 km/h (2 Bft) S-SE 1,00 h 0,711 mm 801 W/m 7,5 C 28,0 C 15,5 km/h (3 Bft)
07/08/2023 16:00 27,5 C 28 % 1012,9 hPa 0,0 mm 7,0 km/h (2 Bft) S-SE 1,00 h 0,635 mm 671 W/m 7,5 C 27,5 C 12,9 km/h (3 Bft)
07/08/2023 17:00 27,3 C 27 % 1013,3 hPa 0,0 mm 8,8 km/h (2 Bft) S 1,00 h 0,533 mm 505 W/m 6,8 C 27,3 C 15,2 km/h (3 Bft)
07/08/2023 18:00 26,6 C 28 % 1013,4 hPa 0,0 mm 6,1 km/h (2 Bft) S 1,00 h 0,432 mm 319 W/m 6,6 C 26,6 C 11,1 km/h (2 Bft)
07/08/2023 19:00 25,1 C 28 % 1013,6 hPa 0,0 mm 3,9 km/h (1 Bft) SO 0,35 h 0,279 mm 108 W/m 5,5 C 25,1 C 7,8 km/h (2 Bft)
07/08/2023 20:00 23,5 C 30 % 1013,8 hPa 0,0 mm 0,2 km/h (0 Bft) SO 0,00 h 0,127 mm 16 W/m 4,8 C 23,5 C 0,5 km/h (0 Bft)
07/08/2023 21:00 21,6 C 34 % 1014,2 hPa 0,0 mm 0,0 km/h (0 Bft) N 0,00 h 0,025 mm 0 W/m 5,1 C 21,6 C 0,0 km/h (0 Bft)
07/08/2023 22:00 20,1 C 39 % 1014,5 hPa 0,0 mm 0,0 km/h (0 Bft) N 0,00 h 0,025 mm 0 W/m 5,7 C 20,1 C 0,1 km/h (0 Bft)
07/08/2023 23:00 19,4 C 40 % 1014,4 hPa 0,0 mm 0,0 km/h (0 Bft) N 0,00 h 0,051 mm 0 W/m 5,4 C 19,4 C 0,1 km/h (0 Bft)
08/08/2023 00:00 19,3 C 40 % 1014,5 hPa 0,0 mm 0,0 km/h (0 Bft) N 0,00 h 0,051 mm 0 W/m 5,2 C 19,3 C 0,0 km/h (0 Bft)
08/08/2023 01:00 19,3 C 40 % 1014,7 hPa 0,0 mm 0,0 km/h (0 Bft) N 0,00 h 0,051 mm 0 W/m 5,4 C 19,3 C 0,0 km/h (0 Bft)
08/08/2023 02:00 19,1 C 39 % 1014,6 hPa 0,0 mm 0,0 km/h (0 Bft) N 0,00 h 0,051 mm 0 W/m 4,9 C 19,1 C 0,0 km/h (0 Bft)
08/08/2023 03:00 18,7 C 41 % 1014,5 hPa 0,0 mm 0,0 km/h (0 Bft) N 0,00 h 0,051 mm 0 W/m 5,2 C 18,7 C 0,1 km/h (0 Bft)
08/08/2023 04:00 18,4 C 42 % 1014,5 hPa 0,0 mm 0,0 km/h (0 Bft) N 0,00 h 0,051 mm 0 W/m 5,3 C 18,4 C 0,0 km/h (0 Bft)
08/08/2023 05:00 18,2 C 43 % 1014,4 hPa 0,0 mm 0,0 km/h (0 Bft) N 0,00 h 0,051 mm 0 W/m 5,3 C 18,2 C 0,0 km/h (0 Bft)
08/08/2023 06:00 17,6 C 45 % 1014,7 hPa 0,0 mm 0,0 km/h (0 Bft) N 0,00 h 0,051 mm 8 W/m 5,5 C 17,6 C 0,0 km/h (0 Bft)
08/08/2023 07:00 16,8 C 49 % 1015,1 hPa 0,0 mm 0,0 km/h (0 Bft) N 0,00 h 0,025 mm 23 W/m 6,1 C 16,8 C 0,1 km/h (0 Bft)
08/08/2023 08:00 19,0 C 48 % 1015,4 hPa 0,0 mm 0,5 km/h (0 Bft) N-NE 0,00 h 0,025 mm 50 W/m 7,6 C 19,0 C 3,5 km/h (1 Bft)
08/08/2023 09:00 23,0 C 43 % 1015,5 hPa 0,0 mm 0,2 km/h (0 Bft) N-NE 0,92 h 0,051 mm 446 W/m 9,8 C 23,0 C 1,9 km/h (1 Bft)
08/08/2023 10:00 26,4 C 46 % 1015,3 hPa 0,0 mm 2,2 km/h (1 Bft) E 1,00 h 0,279 mm 656 W/m 13,7 C 26,4 C 6,4 km/h (2 Bft)
08/08/2023 11:00 27,1 C 46 % 1015,5 hPa 0,0 mm 2,5 km/h (1 Bft) E 1,00 h 0,432 mm 791 W/m 14,6 C 27,1 C 7,3 km/h (2 Bft)
08/08/2023 12:00 26,9 C 47 % 1015,7 hPa 0,0 mm 4,1 km/h (1 Bft) E 1,00 h 0,533 mm 879 W/m 14,7 C 26,9 C 9,8 km/h (2 Bft)
08/08/2023 13:00 26,6 C 54 % 1015,9 hPa 0,0 mm 2,7 km/h (1 Bft) E 1,00 h 0,610 mm 904 W/m 16,6 C 26,6 C 7,8 km/h (2 Bft)
08/08/2023 14:00 27,5 C 48 % 1015,8 hPa 0,0 mm 2,2 km/h (1 Bft) E 1,00 h 0,584 mm 872 W/m 15,3 C 27,5 C 6,9 km/h (2 Bft)
08/08/2023 15:00 28,1 C 44 % 1015,5 hPa 0,0 mm 1,5 km/h (1 Bft) E 1,00 h 0,584 mm 786 W/m 14,8 C 28,1 C 5,5 km/h (1 Bft)
08/08/2023 16:00 27,4 C 49 % 1015,5 hPa 0,0 mm 1,4 km/h (1 Bft) E 0,93 h 0,533 mm 623 W/m 15,5 C 27,4 C 5,3 km/h (1 Bft)
08/08/2023 17:00 26,1 C 57 % 1015,5 hPa 0,0 mm 1,7 km/h (1 Bft) E 0,98 h 0,432 mm 482 W/m 17,0 C 26,1 C 5,8 km/h (2 Bft)
08/08/2023 18:00 24,7 C 63 % 1015,5 hPa 0,0 mm 0,7 km/h (0 Bft) E-SE 1,00 h 0,330 mm 301 W/m 17,1 C 24,7 C 3,3 km/h (1 Bft)
08/08/2023 19:00 23,2 C 69 % 1015,5 hPa 0,0 mm 0,1 km/h (0 Bft) E-SE 0,23 h 0,203 mm 92 W/m 17,2 C 23,2 C 0,8 km/h (0 Bft)
08/08/2023 20:00 21,5 C 74 % 1015,6 hPa 0,0 mm 0,0 km/h (0 Bft) N 0,00 h 0,051 mm 16 W/m 16,5 C 21,5 C 0,1 km/h (0 Bft)
08/08/2023 21:00 20,2 C 79 % 1015,6 hPa 0,0 mm 0,0 km/h (0 Bft) N 0,00 h 0,025 mm 0 W/m 16,5 C 20,2 C 0,0 km/h (0 Bft)
08/08/2023 22:00 19,3 C 81 % 1015,8 hPa 0,0 mm 0,0 km/h (0 Bft) N 0,00 h 0,000 mm 0 W/m 15,9 C 19,3 C 0,0 km/h (0 Bft)
08/08/2023 23:00 18,8 C 79 % 1015,6 hPa 0,0 mm 0,0 km/h (0 Bft) N 0,00 h 0,025 mm 0 W/m 15,0 C 18,8 C 0,0 km/h (0 Bft)
09/08/2023 00:00 18,5 C 78 % 1015,6 hPa 0,0 mm 0,0 km/h (0 Bft) N 0,00 h 0,025 mm 0 W/m 14,6 C 18,5 C 0,0 km/h (0 Bft)
09/08/2023 01:00 18,2 C 80 % 1015,6 hPa 0,0 mm 0,0 km/h (0 Bft) N 0,00 h 0,025 mm 0 W/m 14,7 C 18,2 C 0,0 km/h (0 Bft)
09/08/2023 02:00 18,0 C 79 % 1015,1 hPa 0,0 mm 0,0 km/h (0 Bft) N 0,00 h 0,025 mm 0 W/m 14,4 C 18,0 C 0,0 km/h (0 Bft)
09/08/2023 03:00 17,9 C 77 % 1015,0 hPa 0,0 mm 0,0 km/h (0 Bft) N 0,00 h 0,025 mm 0 W/m 13,8 C 17,9 C 0,0 km/h (0 Bft)
09/08/2023 04:00 17,5 C 77 % 1014,9 hPa 0,0 mm 0,0 km/h (0 Bft) N 0,00 h 0,025 mm 0 W/m 13,5 C 17,5 C 0,0 km/h (0 Bft)
09/08/2023 05:00 16,7 C 77 % 1014,9 hPa 0,0 mm 0,0 km/h (0 Bft) N 0,00 h 0,025 mm 0 W/m 12,6 C 16,7 C 0,0 km/h (0 Bft)
09/08/2023 06:00 16,5 C 76 % 1015,2 hPa 0,0 mm 0,0 km/h (0 Bft) N 0,00 h 0,025 mm 8 W/m 12,3 C 16,5 C 0,0 km/h (0 Bft)
09/08/2023 07:00 16,7 C 75 % 1015,4 hPa 0,0 mm 0,0 km/h (0 Bft) N 0,00 h 0,000 mm 31 W/m 12,3 C 16,7 C 0,0 km/h (0 Bft)
09/08/2023 08:00 18,9 C 71 % 1015,8 hPa 0,0 mm 0,0 km/h (0 Bft) N 0,02 h 0,025 mm 98 W/m 13,6 C 18,9 C 0,0 km/h (0 Bft)
09/08/2023 09:00 22,6 C 60 % 1016,1 hPa 0,0 mm 0,2 km/h (0 Bft) E-SE 0,97 h 0,051 mm 424 W/m 14,4 C 22,6 C 0,8 km/h (0 Bft)
09/08/2023 10:00 25,5 C 52 % 1016,1 hPa 0,0 mm 1,7 km/h (1 Bft) E-SE 1,00 h 0,254 mm 612 W/m 14,9 C 25,5 C 4,9 km/h (1 Bft)
09/08/2023 11:00 26,3 C 57 % 1015,9 hPa 0,0 mm 3,7 km/h (1 Bft) E 1,00 h 0,406 mm 761 W/m 17,1 C 26,3 C 8,7 km/h (2 Bft)
09/08/2023 12:00 26,9 C 50 % 1015,7 hPa 0,0 mm 3,8 km/h (1 Bft) E 1,00 h 0,508 mm 847 W/m 15,4 C 26,9 C 9,2 km/h (2 Bft)
09/08/2023 13:00 27,5 C 51 % 1015,6 hPa 0,0 mm 5,7 km/h (1 Bft) E 1,00 h 0,584 mm 859 W/m 16,4 C 27,5 C 12,3 km/h (3 Bft)
09/08/2023 14:00 27,0 C 53 % 1015,6 hPa 0,0 mm 4,4 km/h (1 Bft) E 1,00 h 0,584 mm 818 W/m 16,4 C 27,0 C 10,8 km/h (2 Bft)
09/08/2023 15:00 26,8 C 49 % 1015,6 hPa 0,0 mm 3,5 km/h (1 Bft) E 1,00 h 0,559 mm 747 W/m 15,3 C 26,8 C 8,3 km/h (2 Bft)
09/08/2023 16:00 27,0 C 47 % 1015,3 hPa 0,0 mm 2,3 km/h (1 Bft) E 1,00 h 0,508 mm 592 W/m 14,9 C 27,0 C 6,7 km/h (2 Bft)
09/08/2023 17:00 27,1 C 50 % 1015,2 hPa 0,0 mm 1,9 km/h (1 Bft) E-SE 1,00 h 0,406 mm 526 W/m 15,6 C 27,1 C 5,7 km/h (1 Bft)
09/08/2023 18:00 26,2 C 53 % 1015,0 hPa 0,0 mm 1,6 km/h (1 Bft) E 1,00 h 0,356 mm 326 W/m 15,7 C 26,2 C 4,8 km/h (1 Bft)
09/08/2023 19:00 24,2 C 59 % 1014,8 hPa 0,0 mm 0,3 km/h (0 Bft) E 0,23 h 0,229 mm 91 W/m 15,6 C 24,2 C 1,2 km/h (1 Bft)
09/08/2023 20:00 22,5 C 71 % 1015,1 hPa 0,0 mm 0,0 km/h (0 Bft) N 0,00 h 0,076 mm 16 W/m 17,0 C 22,5 C 0,0 km/h (0 Bft)
09/08/2023 21:00 21,0 C 79 % 1015,3 hPa 0,0 mm 0,0 km/h (0 Bft) N 0,00 h 0,025 mm 0 W/m 17,2 C 21,0 C 0,0 km/h (0 Bft)
09/08/2023 22:00 20,0 C 83 % 1015,5 hPa 0,0 mm 0,0 km/h (0 Bft) N 0,00 h 0,000 mm 0 W/m 17,0 C 20,0 C 0,0 km/h (0 Bft)
09/08/2023 23:00 19,1 C 81 % 1015,5 hPa 0,0 mm 0,0 km/h (0 Bft) N 0,00 h 0,025 mm 0 W/m 15,8 C 19,1 C 0,0 km/h (0 Bft)
10/08/2023 00:00 18,7 C 83 % 1015,7 hPa 0,0 mm 0,0 km/h (0 Bft) N 0,00 h 0,025 mm 0 W/m 15,8 C 18,7 C 0,0 km/h (0 Bft)
10/08/2023 01:00 18,0 C 85 % 1016,1 hPa 0,0 mm 0,0 km/h (0 Bft) N 0,00 h 0,025 mm 0 W/m 15,5 C 18,0 C 0,0 km/h (0 Bft)
10/08/2023 02:00 17,6 C 85 % 1016,1 hPa 0,0 mm 0,0 km/h (0 Bft) N 0,00 h 0,025 mm 0 W/m 15,1 C 17,6 C 0,0 km/h (0 Bft)
10/08/2023 03:00 17,6 C 83 % 1016,1 hPa 0,0 mm 0,0 km/h (0 Bft) N 0,00 h 0,025 mm 0 W/m 14,6 C 17,6 C 0,0 km/h (0 Bft)
10/08/2023 04:00 17,7 C 82 % 1016,1 hPa 0,0 mm 0,0 km/h (0 Bft) N 0,00 h 0,025 mm 0 W/m 14,6 C 17,7 C 0,0 km/h (0 Bft)
10/08/2023 05:00 17,7 C 81 % 1015,8 hPa 0,0 mm 0,0 km/h (0 Bft) N 0,00 h 0,025 mm 0 W/m 14,4 C 17,7 C 0,0 km/h (0 Bft)
10/08/2023 06:00 17,8 C 83 % 1016,1 hPa 0,0 mm 0,0 km/h (0 Bft) N 0,00 h 0,025 mm 10 W/m 15,0 C 17,8 C 0,0 km/h (0 Bft)
10/08/2023 07:00 18,2 C 82 % 1016,4 hPa 0,0 mm 0,0 km/h (0 Bft) N 0,00 h 0,000 mm 25 W/m 14,9 C 18,2 C 0,0 km/h (0 Bft)
10/08/2023 08:00 19,5 C 79 % 1016,6 hPa 0,0 mm 0,0 km/h (0 Bft) E 0,05 h 0,025 mm 81 W/m 15,8 C 19,5 C 0,0 km/h (0 Bft)
10/08/2023 09:00 23,2 C 72 % 1016,7 hPa 0,0 mm 1,0 km/h (0 Bft) E 1,00 h 0,051 mm 462 W/m 17,8 C 23,2 C 4,1 km/h (1 Bft)
10/08/2023 10:00 25,6 C 64 % 1016,9 hPa 0,0 mm 1,9 km/h (1 Bft) E 1,00 h 0,279 mm 614 W/m 18,3 C 25,6 C 5,6 km/h (1 Bft)
10/08/2023 11:00 27,0 C 58 % 1017,6 hPa 0,0 mm 3,7 km/h (1 Bft) E 1,00 h 0,406 mm 746 W/m 18,0 C 27,0 C 8,3 km/h (2 Bft)
10/08/2023 12:00 27,7 C 48 % 1017,9 hPa 0,0 mm 3,8 km/h (1 Bft) E 1,00 h 0,508 mm 833 W/m 15,6 C 27,7 C 9,2 km/h (2 Bft)
10/08/2023 13:00 27,9 C 43 % 1017,9 hPa 0,0 mm 3,5 km/h (1 Bft) E 1,00 h 0,584 mm 857 W/m 14,1 C 27,9 C 8,9 km/h (2 Bft)
10/08/2023 14:00 28,4 C 42 % 1017,4 hPa 0,0 mm 4,0 km/h (1 Bft) E 1,00 h 0,584 mm 789 W/m 14,3 C 28,4 C 8,8 km/h (2 Bft)
10/08/2023 15:00 28,1 C 45 % 1017,2 hPa 0,0 mm 4,0 km/h (1 Bft) E 0,88 h 0,559 mm 653 W/m 15,0 C 28,1 C 8,8 km/h (2 Bft)
10/08/2023 16:00 27,5 C 48 % 1017,2 hPa 0,0 mm 3,7 km/h (1 Bft) E 0,78 h 0,457 mm 510 W/m 15,5 C 27,5 C 8,3 km/h (2 Bft)
10/08/2023 17:00 26,8 C 55 % 1017,3 hPa 0,0 mm 1,5 km/h (1 Bft) E 0,90 h 0,356 mm 424 W/m 17,1 C 26,8 C 4,6 km/h (1 Bft)
10/08/2023 18:00 26,6 C 48 % 1017,5 hPa 0,0 mm 0,6 km/h (0 Bft) E 0,70 h 0,279 mm 262 W/m 14,5 C 26,6 C 1,9 km/h (1 Bft)
10/08/2023 19:00 25,1 C 57 % 1017,8 hPa 0,0 mm 0,0 km/h (0 Bft) N 0,20 h 0,178 mm 90 W/m 16,0 C 25,1 C 0,0 km/h (0 Bft)
10/08/2023 20:00 23,3 C 62 % 1017,6 hPa 0,0 mm 0,0 km/h (0 Bft) N 0,23 h 0,076 mm 21 W/m 15,5 C 23,3 C 0,0 km/h (0 Bft)
10/08/2023 21:00 22,1 C 66 % 1017,8 hPa 0,0 mm 0,0 km/h (0 Bft) N 0,00 h 0,025 mm 0 W/m 15,4 C 22,1 C 0,0 km/h (0 Bft)
10/08/2023 22:00 21,2 C 69 % 1018,2 hPa 0,0 mm 0,0 km/h (0 Bft) N 0,00 h 0,000 mm 0 W/m 15,4 C 21,2 C 0,0 km/h (0 Bft)
10/08/2023 23:00 20,9 C 71 % 1018,2 hPa 0,0 mm 0,0 km/h (0 Bft) N 0,00 h 0,025 mm 0 W/m 15,4 C 20,9 C 0,0 km/h (0 Bft)
11/08/2023 00:00 20,5 C 71 % 1018,4 hPa 0,0 mm 0,0 km/h (0 Bft) N 0,00 h 0,025 mm 0 W/m 15,1 C 20,5 C 0,0 km/h (0 Bft)
11/08/2023 01:00 19,9 C 74 % 1018,5 hPa 0,0 mm 0,0 km/h (0 Bft) N 0,00 h 0,025 mm 0 W/m 15,2 C 19,9 C 0,0 km/h (0 Bft)
11/08/2023 02:00 19,8 C 77 % 1018,4 hPa 0,0 mm 0,0 km/h (0 Bft) N 0,00 h 0,025 mm 0 W/m 15,7 C 19,8 C 0,0 km/h (0 Bft)
11/08/2023 03:00 19,4 C 79 % 1018,4 hPa 0,0 mm 0,0 km/h (0 Bft) N 0,00 h 0,025 mm 0 W/m 15,7 C 19,4 C 0,0 km/h (0 Bft)
11/08/2023 04:00 19,0 C 81 % 1018,3 hPa 0,0 mm 0,0 km/h (0 Bft) N 0,00 h 0,025 mm 0 W/m 15,7 C 19,0 C 0,0 km/h (0 Bft)
11/08/2023 05:00 18,7 C 79 % 1018,4 hPa 0,0 mm 0,0 km/h (0 Bft) N 0,00 h 0,025 mm 0 W/m 15,0 C 18,7 C 0,0 km/h (0 Bft)
11/08/2023 06:00 18,5 C 74 % 1018,7 hPa 0,0 mm 0,0 km/h (0 Bft) N 0,00 h 0,025 mm 10 W/m 13,8 C 18,5 C 0,0 km/h (0 Bft)
11/08/2023 07:00 19,2 C 72 % 1019,0 hPa 0,0 mm 0,0 km/h (0 Bft) N 0,00 h 0,000 mm 27 W/m 13,9 C 19,2 C 0,0 km/h (0 Bft)
11/08/2023 08:00 21,1 C 67 % 1019,4 hPa 0,0 mm 0,0 km/h (0 Bft) N 0,07 h 0,025 mm 72 W/m 14,7 C 21,1 C 0,0 km/h (0 Bft)
11/08/2023 09:00 24,9 C 56 % 1019,7 hPa 0,0 mm 0,8 km/h (0 Bft) E 1,00 h 0,051 mm 450 W/m 15,3 C 24,9 C 2,4 km/h (1 Bft)
11/08/2023 10:00 28,3 C 49 % 1020,0 hPa 0,0 mm 1,8 km/h (1 Bft) E 1,00 h 0,279 mm 591 W/m 16,6 C 28,3 C 4,8 km/h (1 Bft)
11/08/2023 11:00 29,7 C 46 % 1020,1 hPa 0,0 mm 2,4 km/h (1 Bft) E 1,00 h 0,406 mm 749 W/m 16,9 C 29,7 C 6,4 km/h (2 Bft)
11/08/2023 12:00 30,1 C 48 % 1020,1 hPa 0,0 mm 3,9 km/h (1 Bft) E 1,00 h 0,508 mm 834 W/m 17,8 C 30,1 C 9,3 km/h (2 Bft)
11/08/2023 13:00 30,7 C 50 % 1020,1 hPa 0,0 mm 3,6 km/h (1 Bft) E 1,00 h 0,584 mm 860 W/m 19,1 C 30,7 C 8,7 km/h (2 Bft)
11/08/2023 14:00 30,7 C 50 % 1020,0 hPa 0,0 mm 3,2 km/h (1 Bft) E 1,00 h 0,610 mm 828 W/m 19,1 C 30,7 C 7,3 km/h (2 Bft)
11/08/2023 15:00 31,2 C 47 % 1019,7 hPa 0,0 mm 3,0 km/h (1 Bft) E-SE 1,00 h 0,584 mm 748 W/m 18,5 C 31,2 C 7,4 km/h (2 Bft)
11/08/2023 16:00 31,9 C 45 % 1019,6 hPa 0,0 mm 0,8 km/h (0 Bft) E 1,00 h 0,533 mm 620 W/m 18,4 C 31,9 C 2,9 km/h (1 Bft)
11/08/2023 17:00 32,4 C 43 % 1019,4 hPa 0,0 mm 0,9 km/h (0 Bft) E 1,00 h 0,432 mm 450 W/m 18,0 C 32,4 C 3,3 km/h (1 Bft)
11/08/2023 18:00 31,3 C 45 % 1019,2 hPa 0,0 mm 0,2 km/h (0 Bft) E 1,00 h 0,330 mm 273 W/m 17,9 C 31,3 C 1,3 km/h (1 Bft)
11/08/2023 19:00 29,5 C 49 % 1019,3 hPa 0,0 mm 0,0 km/h (0 Bft) N 0,23 h 0,203 mm 84 W/m 17,6 C 29,5 C 0,2 km/h (0 Bft)
11/08/2023 20:00 27,7 C 55 % 1019,3 hPa 0,0 mm 0,0 km/h (0 Bft) N 0,03 h 0,076 mm 17 W/m 17,7 C 27,7 C 0,0 km/h (0 Bft)
11/08/2023 21:00 26,2 C 60 % 1019,4 hPa 0,0 mm 0,0 km/h (0 Bft) N 0,00 h 0,025 mm 0 W/m 17,8 C 26,2 C 0,0 km/h (0 Bft)
11/08/2023 22:00 25,3 C 62 % 1019,5 hPa 0,0 mm 0,0 km/h (0 Bft) N 0,00 h 0,000 mm 0 W/m 17,5 C 25,3 C 0,0 km/h (0 Bft)
11/08/2023 23:00 24,7 C 64 % 1019,8 hPa 0,0 mm 0,0 km/h (0 Bft) N 0,00 h 0,051 mm 0 W/m 17,4 C 24,7 C 0,0 km/h (0 Bft)
12/08/2023 00:00 24,4 C 64 % 1019,9 hPa 0,0 mm 0,0 km/h (0 Bft) N 0,00 h 0,051 mm 0 W/m 17,1 C 24,4 C 0,0 km/h (0 Bft)
12/08/2023 01:00 24,0 C 64 % 1019,9 hPa 0,0 mm 0,0 km/h (0 Bft) N 0,00 h 0,025 mm 0 W/m 16,8 C 24,0 C 0,0 km/h (0 Bft)
12/08/2023 02:00 23,7 C 65 % 1019,5 hPa 0,0 mm 0,0 km/h (0 Bft) N 0,00 h 0,025 mm 0 W/m 16,7 C 23,7 C 0,0 km/h (0 Bft)
12/08/2023 03:00 23,7 C 65 % 1019,4 hPa 0,0 mm 0,0 km/h (0 Bft) N 0,00 h 0,025 mm 0 W/m 16,7 C 23,7 C 0,0 km/h (0 Bft)
12/08/2023 04:00 23,0 C 67 % 1019,3 hPa 0,0 mm 0,0 km/h (0 Bft) N 0,00 h 0,025 mm 0 W/m 16,5 C 23,0 C 0,0 km/h (0 Bft)
12/08/2023 05:00 22,2 C 70 % 1019,2 hPa 0,0 mm 0,0 km/h (0 Bft) N 0,00 h 0,025 mm 0 W/m 16,4 C 22,2 C 0,0 km/h (0 Bft)
12/08/2023 06:00 21,7 C 72 % 1019,3 hPa 0,0 mm 0,0 km/h (0 Bft) N 0,00 h 0,025 mm 10 W/m 16,3 C 21,7 C 0,0 km/h (0 Bft)
12/08/2023 07:00 22,0 C 73 % 1019,5 hPa 0,0 mm 0,0 km/h (0 Bft) N 0,00 h 0,000 mm 28 W/m 16,8 C 22,0 C 0,0 km/h (0 Bft)
12/08/2023 08:00 23,6 C 68 % 1019,6 hPa 0,0 mm 0,0 km/h (0 Bft) N 0,07 h 0,025 mm 73 W/m 17,4 C 23,6 C 0,0 km/h (0 Bft)
12/08/2023 09:00 27,2 C 58 % 1019,5 hPa 0,0 mm 0,3 km/h (0 Bft) E-SE 1,00 h 0,051 mm 444 W/m 18,1 C 27,2 C 1,3 km/h (1 Bft)
12/08/2023 10:00 31,0 C 47 % 1019,4 hPa 0,0 mm 1,8 km/h (1 Bft) S-SE 1,00 h 0,305 mm 612 W/m 18,2 C 31,0 C 5,3 km/h (1 Bft)
12/08/2023 11:00 32,3 C 42 % 1019,4 hPa 0,0 mm 2,8 km/h (1 Bft) E 1,00 h 0,432 mm 746 W/m 17,7 C 32,3 C 7,2 km/h (2 Bft)
12/08/2023 12:00 32,4 C 35 % 1019,5 hPa 0,0 mm 3,4 km/h (1 Bft) E 1,00 h 0,559 mm 835 W/m 15,0 C 32,4 C 7,8 km/h (2 Bft)
12/08/2023 13:00 33,6 C 31 % 1019,1 hPa 0,0 mm 3,0 km/h (1 Bft) E 1,00 h 0,610 mm 867 W/m 14,0 C 33,6 C 8,5 km/h (2 Bft)
12/08/2023 14:00 33,7 C 35 % 1018,8 hPa 0,0 mm 3,0 km/h (1 Bft) E 1,00 h 0,635 mm 836 W/m 16,2 C 33,7 C 8,0 km/h (2 Bft)
12/08/2023 15:00 33,6 C 40 % 1018,4 hPa 0,0 mm 3,0 km/h (1 Bft) E 1,00 h 0,635 mm 752 W/m 18,1 C 33,6 C 8,2 km/h (2 Bft)
12/08/2023 16:00 32,5 C 44 % 1018,0 hPa 0,0 mm 3,6 km/h (1 Bft) E 1,00 h 0,559 mm 607 W/m 18,8 C 32,5 C 8,5 km/h (2 Bft)
12/08/2023 17:00 30,9 C 47 % 1017,7 hPa 0,0 mm 2,1 km/h (1 Bft) E 0,82 h 0,457 mm 362 W/m 18,4 C 30,9 C 5,7 km/h (1 Bft)
12/08/2023 18:00 30,6 C 42 % 1017,4 hPa 0,0 mm 0,6 km/h (0 Bft) E 0,50 h 0,279 mm 216 W/m 16,1 C 30,6 C 2,1 km/h (1 Bft)
12/08/2023 19:00 29,4 C 43 % 1017,1 hPa 0,0 mm 0,1 km/h (0 Bft) S 0,38 h 0,152 mm 113 W/m 15,6 C 29,4 C 0,9 km/h (0 Bft)
12/08/2023 20:00 27,3 C 54 % 1017,4 hPa 0,0 mm 0,0 km/h (0 Bft) N 0,02 h 0,076 mm 16 W/m 17,1 C 27,3 C 0,0 km/h (0 Bft)
12/08/2023 21:00 25,2 C 64 % 1017,6 hPa 0,0 mm 0,0 km/h (0 Bft) N 0,00 h 0,025 mm 0 W/m 17,9 C 25,2 C 0,0 km/h (0 Bft)
12/08/2023 22:00 23,9 C 68 % 1017,9 hPa 0,0 mm 0,0 km/h (0 Bft) N 0,00 h 0,051 mm 0 W/m 17,5 C 23,9 C 0,0 km/h (0 Bft)
12/08/2023 23:00 23,1 C 70 % 1017,9 hPa 0,0 mm 0,0 km/h (0 Bft) N 0,00 h 0,025 mm 0 W/m 17,3 C 23,1 C 0,0 km/h (0 Bft)
13/08/2023 00:00 22,7 C 77 % 1017,9 hPa 0,0 mm 0,0 km/h (0 Bft) N 0,00 h 0,025 mm 0 W/m 18,5 C 22,7 C 0,0 km/h (0 Bft)
13/08/2023 01:00 22,0 C 80 % 1017,9 hPa 0,0 mm 0,0 km/h (0 Bft) N 0,00 h 0,025 mm 0 W/m 18,4 C 22,0 C 0,0 km/h (0 Bft)
13/08/2023 02:00 21,5 C 70 % 1017,7 hPa 0,0 mm 0,0 km/h (0 Bft) N 0,00 h 0,025 mm 0 W/m 15,9 C 21,5 C 0,0 km/h (0 Bft)
13/08/2023 03:00 21,6 C 69 % 1017,4 hPa 0,0 mm 0,0 km/h (0 Bft) N 0,00 h 0,025 mm 0 W/m 15,7 C 21,6 C 0,0 km/h (0 Bft)
13/08/2023 04:00 21,6 C 72 % 1017,3 hPa 0,0 mm 0,0 km/h (0 Bft) N 0,00 h 0,025 mm 0 W/m 16,3 C 21,6 C 0,0 km/h (0 Bft)
13/08/2023 05:00 21,6 C 69 % 1017,2 hPa 0,0 mm 0,0 km/h (0 Bft) N 0,00 h 0,025 mm 0 W/m 15,6 C 21,6 C 0,0 km/h (0 Bft)
13/08/2023 06:00 21,5 C 70 % 1017,3 hPa 0,0 mm 0,0 km/h (0 Bft) N 0,00 h 0,025 mm 10 W/m 15,7 C 21,5 C 0,0 km/h (0 Bft)
13/08/2023 07:00 21,7 C 68 % 1017,5 hPa 0,0 mm 0,0 km/h (0 Bft) N 0,00 h 0,000 mm 27 W/m 15,5 C 21,7 C 0,0 km/h (0 Bft)
13/08/2023 08:00 23,7 C 62 % 1017,8 hPa 0,0 mm 0,0 km/h (0 Bft) N 0,07 h 0,025 mm 72 W/m 16,1 C 23,7 C 0,0 km/h (0 Bft)
13/08/2023 09:00 27,4 C 53 % 1017,8 hPa 0,0 mm 0,0 km/h (0 Bft) N 1,00 h 0,051 mm 442 W/m 16,8 C 27,4 C 0,0 km/h (0 Bft)
13/08/2023 10:00 31,0 C 45 % 1017,7 hPa 0,0 mm 1,6 km/h (1 Bft) E 1,00 h 0,279 mm 608 W/m 17,6 C 31,0 C 4,5 km/h (1 Bft)
13/08/2023 11:00 31,7 C 41 % 1017,4 hPa 0,0 mm 3,4 km/h (1 Bft) E 1,00 h 0,432 mm 743 W/m 16,7 C 31,7 C 7,6 km/h (2 Bft)
13/08/2023 12:00 32,7 C 38 % 1017,4 hPa 0,0 mm 3,2 km/h (1 Bft) E 1,00 h 0,559 mm 830 W/m 16,3 C 32,7 C 7,7 km/h (2 Bft)
13/08/2023 13:00 32,4 C 43 % 1017,3 hPa 0,0 mm 4,2 km/h (1 Bft) E 1,00 h 0,610 mm 850 W/m 18,3 C 32,4 C 9,3 km/h (2 Bft)
13/08/2023 14:00 32,8 C 43 % 1016,9 hPa 0,0 mm 3,6 km/h (1 Bft) E 1,00 h 0,610 mm 821 W/m 18,6 C 32,8 C 8,4 km/h (2 Bft)
13/08/2023 15:00 33,7 C 39 % 1016,5 hPa 0,0 mm 2,5 km/h (1 Bft) E 1,00 h 0,584 mm 753 W/m 17,8 C 33,7 C 6,9 km/h (2 Bft)
13/08/2023 16:00 32,8 C 48 % 1016,3 hPa 0,0 mm 2,3 km/h (1 Bft) E 1,00 h 0,559 mm 630 W/m 20,2 C 32,8 C 6,5 km/h (2 Bft)
13/08/2023 17:00 31,8 C 52 % 1016,6 hPa 0,0 mm 0,9 km/h (0 Bft) NE 1,00 h 0,457 mm 465 W/m 20,6 C 31,8 C 3,6 km/h (1 Bft)
13/08/2023 18:00 30,9 C 50 % 1016,2 hPa 0,0 mm 0,6 km/h (0 Bft) E-NE 1,00 h 0,330 mm 279 W/m 19,3 C 30,9 C 2,3 km/h (1 Bft)
13/08/2023 19:00 29,4 C 54 % 1015,8 hPa 0,0 mm 0,0 km/h (0 Bft) N 0,22 h 0,203 mm 78 W/m 19,0 C 29,4 C 0,1 km/h (0 Bft)
13/08/2023 20:00 27,1 C 64 % 1015,9 hPa 0,0 mm 0,0 km/h (0 Bft) N 0,00 h 0,051 mm 14 W/m 19,6 C 27,1 C 0,0 km/h (0 Bft)
13/08/2023 21:00 25,5 C 67 % 1016,1 hPa 0,0 mm 0,0 km/h (0 Bft) N 0,00 h 0,025 mm 0 W/m 19,0 C 25,5 C 0,0 km/h (0 Bft)
13/08/2023 22:00 24,7 C 68 % 1016,2 hPa 0,0 mm 0,0 km/h (0 Bft) N 0,00 h 0,000 mm 0 W/m 18,4 C 24,7 C 0,0 km/h (0 Bft)
13/08/2023 23:00 24,0 C 68 % 1016,1 hPa 0,0 mm 0,0 km/h (0 Bft) N 0,00 h 0,025 mm 0 W/m 17,7 C 24,0 C 0,0 km/h (0 Bft)
Min-Date _ 09/08/23 07/08/23 07/08/23 - 07/08/23 - - - - 07/08/23 09/08/23 07/08/23
_ Min-Heure 06:15 13:36 00:00 - 00:00 - - - - 19:54 06:15 00:00
Minimum _ 16,4 C 24 % 1008,4 hPa - 0,0 km/h (0 Bft) - - - - 4,1 C 16,4 C 0,0 km/h (0 Bft)
Max-Date _ 12/08/23 10/08/23 11/08/23 07/08/23 07/08/23 - 07/08/23 07/08/23 07/08/23 13/08/23 12/08/23 07/08/23
_ Max-Heure 13:45 01:34 10:30 00:00 13:56 - 06:37 14:00 13:30 16:57 13:45 13:56
Maximum _ 34,3 C 86 % 1020,1 hPa 0,0 mm 19,3 km/h
S-SE (3 Bft)
- 0,02 h 0,737 mm 919 W/m 21,3 C 34,3 C 33,8 km/h
S (5 Bft)
Moyenne _ 24,2 C 57 % 1016,4 hPa #0,0 mm 1,3 km/h (1 Bft) E #70:43 h #35,308 mm 447 W/m 14,5 C 24,2 C 3,2 km/h (1 Bft)
Roquefort les pins